sensor_id;sensor_type;location;lat;lon;timestamp;pressure;altitude;pressure_sealevel;temperature;humidity
21357;BME280;10836;53.068;18.234;2023-07-13T00:02:05;100628.13;;;14.42;100.00
21357;BME280;10836;53.068;18.234;2023-07-13T00:04:32;100628.47;;;14.35;100.00
21357;BME280;10836;53.068;18.234;2023-07-13T00:07:00;100629.06;;;14.32;100.00
21357;BME280;10836;53.068;18.234;2023-07-13T00:09:27;100623.16;;;14.25;100.00
21357;BME280;10836;53.068;18.234;2023-07-13T00:11:56;100621.94;;;14.31;100.00
21357;BME280;10836;53.068;18.234;2023-07-13T00:14:26;100623.06;;;14.30;100.00
21357;BME280;10836;53.068;18.234;2023-07-13T00:16:54;100622.56;;;14.28;100.00
21357;BME280;10836;53.068;18.234;2023-07-13T00:19:22;100622.75;;;14.31;100.00
21357;BME280;10836;53.068;18.234;2023-07-13T00:21:49;100630.19;;;14.31;100.00
21357;BME280;10836;53.068;18.234;2023-07-13T00:24:17;100631.72;;;14.37;100.00
21357;BME280;10836;53.068;18.234;2023-07-13T00:26:51;100646.59;;;14.36;100.00
21357;BME280;10836;53.068;18.234;2023-07-13T00:29:18;100646.19;;;14.29;100.00
21357;BME280;10836;53.068;18.234;2023-07-13T00:31:45;100642.28;;;14.30;100.00
21357;BME280;10836;53.068;18.234;2023-07-13T00:34:12;100637.50;;;14.22;100.00
21357;BME280;10836;53.068;18.234;2023-07-13T00:36:40;100633.72;;;14.18;100.00
21357;BME280;10836;53.068;18.234;2023-07-13T00:39:07;100642.03;;;14.13;100.00
21357;BME280;10836;53.068;18.234;2023-07-13T00:41:34;100652.56;;;14.06;100.00
21357;BME280;10836;53.068;18.234;2023-07-13T00:44:03;100654.78;;;14.04;100.00
21357;BME280;10836;53.068;18.234;2023-07-13T00:46:33;100665.78;;;14.04;100.00
21357;BME280;10836;53.068;18.234;2023-07-13T00:49:05;100667.56;;;13.94;100.00
21357;BME280;10836;53.068;18.234;2023-07-13T00:51:40;100666.50;;;13.90;100.00
21357;BME280;10836;53.068;18.234;2023-07-13T00:54:13;100664.88;;;13.89;100.00
21357;BME280;10836;53.068;18.234;2023-07-13T00:56:43;100675.28;;;13.92;100.00
21357;BME280;10836;53.068;18.234;2023-07-13T00:59:13;100679.19;;;13.86;100.00
21357;BME280;10836;53.068;18.234;2023-07-13T01:01:42;100677.59;;;13.85;100.00
21357;BME280;10836;53.068;18.234;2023-07-13T01:04:09;100695.59;;;13.91;100.00
21357;BME280;10836;53.068;18.234;2023-07-13T01:06:37;100696.28;;;13.83;100.00
21357;BME280;10836;53.068;18.234;2023-07-13T01:09:06;100690.28;;;13.81;100.00
21357;BME280;10836;53.068;18.234;2023-07-13T01:11:34;100687.59;;;13.76;100.00
21357;BME280;10836;53.068;18.234;2023-07-13T01:14:03;100690.34;;;13.76;100.00
21357;BME280;10836;53.068;18.234;2023-07-13T01:16:33;100676.97;;;13.70;100.00
21357;BME280;10836;53.068;18.234;2023-07-13T01:19:01;100665.31;;;13.59;100.00
21357;BME280;10836;53.068;18.234;2023-07-13T01:21:29;100663.69;;;13.58;100.00
21357;BME280;10836;53.068;18.234;2023-07-13T01:23:58;100660.34;;;13.61;100.00
21357;BME280;10836;53.068;18.234;2023-07-13T01:26:25;100660.34;;;13.61;100.00
21357;BME280;10836;53.068;18.234;2023-07-13T01:28:53;100673.03;;;13.57;100.00
21357;BME280;10836;53.068;18.234;2023-07-13T01:31:23;100662.97;;;13.71;100.00
21357;BME280;10836;53.068;18.234;2023-07-13T01:33:51;100669.03;;;13.68;100.00
21357;BME280;10836;53.068;18.234;2023-07-13T01:36:20;100672.44;;;13.60;100.00
21357;BME280;10836;53.068;18.234;2023-07-13T01:38:47;100675.25;;;13.55;100.00
21357;BME280;10836;53.068;18.234;2023-07-13T01:41:15;100676.63;;;13.52;100.00
21357;BME280;10836;53.068;18.234;2023-07-13T01:43:42;100682.81;;;13.63;100.00
21357;BME280;10836;53.068;18.234;2023-07-13T01:46:09;100680.84;;;13.69;100.00
21357;BME280;10836;53.068;18.234;2023-07-13T01:48:42;100683.41;;;13.60;100.00
21357;BME280;10836;53.068;18.234;2023-07-13T01:51:09;100695.50;;;13.59;100.00
21357;BME280;10836;53.068;18.234;2023-07-13T01:53:36;100692.75;;;13.59;100.00
21357;BME280;10836;53.068;18.234;2023-07-13T01:56:03;100689.34;;;13.67;100.00
21357;BME280;10836;53.068;18.234;2023-07-13T01:58:30;100695.44;;;13.64;100.00
21357;BME280;10836;53.068;18.234;2023-07-13T02:00:57;100691.81;;;13.69;100.00
21357;BME280;10836;53.068;18.234;2023-07-13T02:03:24;100685.50;;;13.68;100.00
21357;BME280;10836;53.068;18.234;2023-07-13T02:05:51;100697.81;;;13.71;100.00
21357;BME280;10836;53.068;18.234;2023-07-13T02:08:18;100693.22;;;13.66;100.00
21357;BME280;10836;53.068;18.234;2023-07-13T02:10:46;100696.47;;;13.68;100.00
21357;BME280;10836;53.068;18.234;2023-07-13T02:13:13;100689.06;;;13.69;100.00
21357;BME280;10836;53.068;18.234;2023-07-13T02:15:40;100683.88;;;13.67;100.00
21357;BME280;10836;53.068;18.234;2023-07-13T02:18:07;100683.63;;;13.63;100.00
21357;BME280;10836;53.068;18.234;2023-07-13T02:20:35;100681.66;;;13.69;100.00
21357;BME280;10836;53.068;18.234;2023-07-13T02:23:02;100676.00;;;13.60;100.00
21357;BME280;10836;53.068;18.234;2023-07-13T02:25:29;100673.13;;;13.71;100.00
21357;BME280;10836;53.068;18.234;2023-07-13T02:27:56;100675.56;;;13.72;100.00
21357;BME280;10836;53.068;18.234;2023-07-13T02:30:23;100672.19;;;13.80;100.00
21357;BME280;10836;53.068;18.234;2023-07-13T02:32:53;100671.28;;;13.85;100.00
21357;BME280;10836;53.068;18.234;2023-07-13T02:35:21;100671.25;;;13.66;100.00
21357;BME280;10836;53.068;18.234;2023-07-13T02:37:48;100665.28;;;13.83;100.00
21357;BME280;10836;53.068;18.234;2023-07-13T02:40:15;100664.47;;;13.82;100.00
21357;BME280;10836;53.068;18.234;2023-07-13T02:42:42;100662.44;;;13.88;100.00
21357;BME280;10836;53.068;18.234;2023-07-13T02:45:09;100666.06;;;13.64;100.00
21357;BME280;10836;53.068;18.234;2023-07-13T02:47:36;100665.19;;;13.69;100.00
21357;BME280;10836;53.068;18.234;2023-07-13T02:50:04;100664.00;;;13.75;100.00
21357;BME280;10836;53.068;18.234;2023-07-13T02:52:31;100665.88;;;13.80;100.00
21357;BME280;10836;53.068;18.234;2023-07-13T02:54:58;100662.91;;;13.76;100.00
21357;BME280;10836;53.068;18.234;2023-07-13T02:57:25;100673.22;;;13.84;100.00
21357;BME280;10836;53.068;18.234;2023-07-13T02:59:54;100663.34;;;13.83;100.00
21357;BME280;10836;53.068;18.234;2023-07-13T03:02:21;100659.84;;;13.96;100.00
21357;BME280;10836;53.068;18.234;2023-07-13T03:04:48;100653.59;;;13.91;100.00
21357;BME280;10836;53.068;18.234;2023-07-13T03:07:15;100658.38;;;13.85;100.00
21357;BME280;10836;53.068;18.234;2023-07-13T03:09:45;100659.50;;;13.84;100.00
21357;BME280;10836;53.068;18.234;2023-07-13T03:12:12;100661.63;;;13.87;100.00
21357;BME280;10836;53.068;18.234;2023-07-13T03:14:39;100665.47;;;13.86;100.00
21357;BME280;10836;53.068;18.234;2023-07-13T03:17:07;100663.78;;;13.90;100.00
21357;BME280;10836;53.068;18.234;2023-07-13T03:19:38;100670.38;;;13.89;100.00
21357;BME280;10836;53.068;18.234;2023-07-13T03:22:05;100680.16;;;13.95;100.00
21357;BME280;10836;53.068;18.234;2023-07-13T03:24:34;100676.31;;;13.96;100.00
21357;BME280;10836;53.068;18.234;2023-07-13T03:27:06;100690.56;;;13.98;100.00
21357;BME280;10836;53.068;18.234;2023-07-13T03:29:37;100676.75;;;14.04;100.00
21357;BME280;10836;53.068;18.234;2023-07-13T03:32:05;100677.44;;;13.95;100.00
21357;BME280;10836;53.068;18.234;2023-07-13T03:34:32;100678.53;;;13.94;100.00
21357;BME280;10836;53.068;18.234;2023-07-13T03:36:59;100680.03;;;14.06;100.00
21357;BME280;10836;53.068;18.234;2023-07-13T03:39:27;100689.09;;;14.25;100.00
21357;BME280;10836;53.068;18.234;2023-07-13T03:41:56;100690.13;;;14.29;100.00
21357;BME280;10836;53.068;18.234;2023-07-13T03:44:23;100687.88;;;14.31;100.00
21357;BME280;10836;53.068;18.234;2023-07-13T03:46:54;100687.81;;;14.55;100.00
21357;BME280;10836;53.068;18.234;2023-07-13T03:49:21;100688.53;;;14.60;100.00
21357;BME280;10836;53.068;18.234;2023-07-13T03:51:48;100686.38;;;14.57;100.00
21357;BME280;10836;53.068;18.234;2023-07-13T03:54:19;100684.38;;;14.77;100.00
21357;BME280;10836;53.068;18.234;2023-07-13T03:56:46;100701.00;;;14.72;100.00
21357;BME280;10836;53.068;18.234;2023-07-13T03:59:13;100699.53;;;14.74;100.00
21357;BME280;10836;53.068;18.234;2023-07-13T04:01:40;100710.75;;;14.78;100.00
21357;BME280;10836;53.068;18.234;2023-07-13T04:04:07;100709.47;;;14.89;100.00
21357;BME280;10836;53.068;18.234;2023-07-13T04:06:34;100715.31;;;15.01;100.00
21357;BME280;10836;53.068;18.234;2023-07-13T04:09:03;100715.63;;;15.13;100.00
21357;BME280;10836;53.068;18.234;2023-07-13T04:11:33;100718.47;;;15.22;100.00
21357;BME280;10836;53.068;18.234;2023-07-13T04:14:00;100725.22;;;15.29;100.00
21357;BME280;10836;53.068;18.234;2023-07-13T04:16:28;100726.84;;;15.30;100.00
21357;BME280;10836;53.068;18.234;2023-07-13T04:18:56;100730.13;;;15.32;100.00
21357;BME280;10836;53.068;18.234;2023-07-13T04:21:28;100730.00;;;15.38;100.00
21357;BME280;10836;53.068;18.234;2023-07-13T04:23:56;100721.97;;;15.41;100.00
21357;BME280;10836;53.068;18.234;2023-07-13T04:26:23;100719.09;;;15.32;100.00
21357;BME280;10836;53.068;18.234;2023-07-13T04:28:50;100713.81;;;15.36;100.00
21357;BME280;10836;53.068;18.234;2023-07-13T04:31:18;100706.28;;;15.42;100.00
21357;BME280;10836;53.068;18.234;2023-07-13T04:33:45;100709.13;;;15.50;100.00
21357;BME280;10836;53.068;18.234;2023-07-13T04:36:15;100711.50;;;15.57;100.00
21357;BME280;10836;53.068;18.234;2023-07-13T04:38:42;100719.53;;;15.67;100.00
21357;BME280;10836;53.068;18.234;2023-07-13T04:41:09;100723.41;;;15.66;100.00
21357;BME280;10836;53.068;18.234;2023-07-13T04:43:36;100723.41;;;15.66;100.00
21357;BME280;10836;53.068;18.234;2023-07-13T04:46:08;100718.41;;;15.68;100.00
21357;BME280;10836;53.068;18.234;2023-07-13T04:48:37;100728.91;;;15.93;100.00
21357;BME280;10836;53.068;18.234;2023-07-13T04:51:04;100731.06;;;16.19;100.00
21357;BME280;10836;53.068;18.234;2023-07-13T04:53:32;100743.00;;;16.28;100.00
21357;BME280;10836;53.068;18.234;2023-07-13T04:55:59;100755.94;;;16.41;100.00
21357;BME280;10836;53.068;18.234;2023-07-13T04:58:27;100757.91;;;16.49;100.00
21357;BME280;10836;53.068;18.234;2023-07-13T05:01:00;100767.28;;;16.62;100.00
21357;BME280;10836;53.068;18.234;2023-07-13T05:03:28;100769.94;;;16.53;100.00
21357;BME280;10836;53.068;18.234;2023-07-13T05:06:02;100774.22;;;16.59;100.00
21357;BME280;10836;53.068;18.234;2023-07-13T05:08:29;100767.75;;;16.78;100.00
21357;BME280;10836;53.068;18.234;2023-07-13T05:10:56;100779.75;;;17.04;100.00
21357;BME280;10836;53.068;18.234;2023-07-13T05:13:23;100776.75;;;17.14;100.00
21357;BME280;10836;53.068;18.234;2023-07-13T05:16:02;100770.03;;;17.38;100.00
21357;BME280;10836;53.068;18.234;2023-07-13T05:18:30;100777.06;;;17.44;100.00
21357;BME280;10836;53.068;18.234;2023-07-13T05:21:02;100781.31;;;17.50;100.00
21357;BME280;10836;53.068;18.234;2023-07-13T05:23:30;100777.22;;;17.78;100.00
21357;BME280;10836;53.068;18.234;2023-07-13T05:25:58;100790.47;;;17.59;100.00
21357;BME280;10836;53.068;18.234;2023-07-13T05:28:27;100787.31;;;17.74;100.00
21357;BME280;10836;53.068;18.234;2023-07-13T05:30:55;100785.38;;;17.83;100.00
21357;BME280;10836;53.068;18.234;2023-07-13T05:33:23;100788.25;;;17.78;100.00
21357;BME280;10836;53.068;18.234;2023-07-13T05:35:50;100793.50;;;17.88;100.00
21357;BME280;10836;53.068;18.234;2023-07-13T05:38:17;100800.75;;;17.67;100.00
21357;BME280;10836;53.068;18.234;2023-07-13T05:40:45;100799.84;;;17.89;100.00
21357;BME280;10836;53.068;18.234;2023-07-13T05:43:13;100801.38;;;18.04;100.00
21357;BME280;10836;53.068;18.234;2023-07-13T05:45:40;100803.50;;;18.24;100.00
21357;BME280;10836;53.068;18.234;2023-07-13T05:48:07;100802.59;;;18.63;100.00
21357;BME280;10836;53.068;18.234;2023-07-13T05:50:34;100803.56;;;19.02;100.00
21357;BME280;10836;53.068;18.234;2023-07-13T05:53:01;100805.31;;;19.23;100.00
21357;BME280;10836;53.068;18.234;2023-07-13T05:55:28;100800.75;;;19.27;100.00
21357;BME280;10836;53.068;18.234;2023-07-13T05:57:56;100802.41;;;19.11;100.00
21357;BME280;10836;53.068;18.234;2023-07-13T06:00:25;100804.97;;;19.34;100.00
21357;BME280;10836;53.068;18.234;2023-07-13T06:02:52;100801.44;;;19.71;100.00
21357;BME280;10836;53.068;18.234;2023-07-13T06:05:20;100797.50;;;20.61;100.00
21357;BME280;10836;53.068;18.234;2023-07-13T06:07:47;100795.06;;;21.46;100.00
21357;BME280;10836;53.068;18.234;2023-07-13T06:10:14;100790.53;;;22.51;100.00
21357;BME280;10836;53.068;18.234;2023-07-13T06:12:41;100791.19;;;24.42;100.00
21357;BME280;10836;53.068;18.234;2023-07-13T06:15:08;100797.34;;;25.70;91.50
21357;BME280;10836;53.068;18.234;2023-07-13T06:17:35;100796.94;;;27.07;81.95
21357;BME280;10836;53.068;18.234;2023-07-13T06:20:02;100787.31;;;27.90;74.22
21357;BME280;10836;53.068;18.234;2023-07-13T06:22:29;100785.97;;;28.24;68.34
21357;BME280;10836;53.068;18.234;2023-07-13T06:24:56;100774.38;;;29.23;66.62
21357;BME280;10836;53.068;18.234;2023-07-13T06:27:23;100772.72;;;29.11;61.55
21357;BME280;10836;53.068;18.234;2023-07-13T06:29:50;100782.44;;;30.31;58.09
21357;BME280;10836;53.068;18.234;2023-07-13T06:32:18;100779.66;;;29.92;53.82
21357;BME280;10836;53.068;18.234;2023-07-13T06:34:45;100785.59;;;30.51;51.49
21357;BME280;10836;53.068;18.234;2023-07-13T06:37:12;100790.06;;;30.34;52.17
21357;BME280;10836;53.068;18.234;2023-07-13T06:39:38;100792.81;;;30.70;50.73
21357;BME280;10836;53.068;18.234;2023-07-13T06:42:06;100782.34;;;28.96;55.38
21357;BME280;10836;53.068;18.234;2023-07-13T06:44:33;100785.13;;;28.20;60.83
21357;BME280;10836;53.068;18.234;2023-07-13T06:47:00;100768.22;;;27.17;66.50
21357;BME280;10836;53.068;18.234;2023-07-13T06:49:27;100781.75;;;25.04;74.76
21357;BME280;10836;53.068;18.234;2023-07-13T06:51:54;100785.00;;;23.66;81.00
21357;BME280;10836;53.068;18.234;2023-07-13T06:54:21;100796.16;;;23.66;83.75
21357;BME280;10836;53.068;18.234;2023-07-13T06:56:48;100787.28;;;23.33;88.29
21357;BME280;10836;53.068;18.234;2023-07-13T06:59:15;100799.78;;;22.95;93.14
21357;BME280;10836;53.068;18.234;2023-07-13T07:01:42;100814.69;;;22.87;93.77
21357;BME280;10836;53.068;18.234;2023-07-13T07:04:09;100809.00;;;22.83;97.06
21357;BME280;10836;53.068;18.234;2023-07-13T07:06:36;100812.56;;;22.44;99.61
21357;BME280;10836;53.068;18.234;2023-07-13T07:09:03;100807.31;;;22.54;99.08
21357;BME280;10836;53.068;18.234;2023-07-13T07:11:30;100818.03;;;22.40;100.00
21357;BME280;10836;53.068;18.234;2023-07-13T07:13:57;100803.09;;;22.73;100.00
21357;BME280;10836;53.068;18.234;2023-07-13T07:16:25;100804.13;;;22.80;100.00
21357;BME280;10836;53.068;18.234;2023-07-13T07:18:52;100805.78;;;23.25;89.46
21357;BME280;10836;53.068;18.234;2023-07-13T07:21:19;100810.34;;;23.93;93.27
21357;BME280;10836;53.068;18.234;2023-07-13T07:23:46;100808.00;;;23.95;78.60
21357;BME280;10836;53.068;18.234;2023-07-13T07:26:13;100809.63;;;23.64;81.03
21357;BME280;10836;53.068;18.234;2023-07-13T07:28:40;100811.97;;;23.94;76.70
21357;BME280;10836;53.068;18.234;2023-07-13T07:31:12;100814.13;;;23.53;79.08
21357;BME280;10836;53.068;18.234;2023-07-13T07:33:42;100814.41;;;23.79;86.73
21357;BME280;10836;53.068;18.234;2023-07-13T07:36:10;100813.69;;;24.49;73.74
21357;BME280;10836;53.068;18.234;2023-07-13T07:38:41;100814.22;;;24.74;76.23
21357;BME280;10836;53.068;18.234;2023-07-13T07:41:09;100807.47;;;25.13;72.17
21357;BME280;10836;53.068;18.234;2023-07-13T07:43:38;100816.13;;;24.70;68.12
21357;BME280;10836;53.068;18.234;2023-07-13T07:46:06;100807.28;;;23.98;69.29
21357;BME280;10836;53.068;18.234;2023-07-13T07:48:33;100810.75;;;24.26;72.87
21357;BME280;10836;53.068;18.234;2023-07-13T07:51:00;100809.75;;;23.40;70.61
21357;BME280;10836;53.068;18.234;2023-07-13T07:53:27;100808.72;;;23.60;72.73
21357;BME280;10836;53.068;18.234;2023-07-13T07:55:54;100815.72;;;23.85;73.21
21357;BME280;10836;53.068;18.234;2023-07-13T07:58:24;100818.38;;;23.78;68.99
21357;BME280;10836;53.068;18.234;2023-07-13T08:01:02;100817.69;;;23.38;71.49
21357;BME280;10836;53.068;18.234;2023-07-13T08:03:32;100825.28;;;23.53;72.88
21357;BME280;10836;53.068;18.234;2023-07-13T08:06:02;100818.88;;;22.69;75.49
21357;BME280;10836;53.068;18.234;2023-07-13T08:08:33;100836.09;;;22.10;77.42
21357;BME280;10836;53.068;18.234;2023-07-13T08:11:05;100831.00;;;22.48;81.91
21357;BME280;10836;53.068;18.234;2023-07-13T08:13:53;100837.44;;;22.65;74.97
21357;BME280;10836;53.068;18.234;2023-07-13T08:16:22;100829.63;;;22.30;73.32
21357;BME280;10836;53.068;18.234;2023-07-13T08:18:50;100831.09;;;22.52;75.13
21357;BME280;10836;53.068;18.234;2023-07-13T08:21:17;100842.75;;;22.70;74.41
21357;BME280;10836;53.068;18.234;2023-07-13T08:23:46;100832.19;;;22.75;71.54
21357;BME280;10836;53.068;18.234;2023-07-13T08:26:13;100837.34;;;23.01;72.65
21357;BME280;10836;53.068;18.234;2023-07-13T08:28:41;100828.47;;;23.11;73.57
21357;BME280;10836;53.068;18.234;2023-07-13T08:31:09;100829.78;;;23.73;74.91
21357;BME280;10836;53.068;18.234;2023-07-13T08:33:37;100821.66;;;24.31;73.39
21357;BME280;10836;53.068;18.234;2023-07-13T08:36:05;100821.03;;;25.11;68.62
21357;BME280;10836;53.068;18.234;2023-07-13T08:38:32;100818.06;;;26.15;62.46
21357;BME280;10836;53.068;18.234;2023-07-13T08:41:09;100827.84;;;26.28;60.44
21357;BME280;10836;53.068;18.234;2023-07-13T08:43:37;100820.78;;;26.11;59.33
21357;BME280;10836;53.068;18.234;2023-07-13T08:46:13;100820.16;;;26.48;60.36
21357;BME280;10836;53.068;18.234;2023-07-13T08:48:46;100826.06;;;26.69;53.29
21357;BME280;10836;53.068;18.234;2023-07-13T08:51:31;100819.03;;;26.26;51.29
21357;BME280;10836;53.068;18.234;2023-07-13T08:54:02;100821.22;;;26.13;57.22
21357;BME280;10836;53.068;18.234;2023-07-13T08:56:31;100823.34;;;26.46;58.48
21357;BME280;10836;53.068;18.234;2023-07-13T08:59:03;100817.28;;;26.71;51.87
21357;BME280;10836;53.068;18.234;2023-07-13T09:01:52;100826.03;;;26.13;51.31
21357;BME280;10836;53.068;18.234;2023-07-13T09:04:24;100822.28;;;26.88;50.52
21357;BME280;10836;53.068;18.234;2023-07-13T09:07:18;100820.47;;;28.21;52.58
21357;BME280;10836;53.068;18.234;2023-07-13T09:15:41;100813.13;;;27.21;48.02
21357;BME280;10836;53.068;18.234;2023-07-13T09:18:27;100816.22;;;26.52;52.70
21357;BME280;10836;53.068;18.234;2023-07-13T09:21:02;100804.91;;;26.19;52.66
21357;BME280;10836;53.068;18.234;2023-07-13T09:23:32;100800.09;;;27.02;53.38
21357;BME280;10836;53.068;18.234;2023-07-13T09:26:14;100797.84;;;28.00;49.37
21357;BME280;10836;53.068;18.234;2023-07-13T09:28:48;100793.00;;;27.12;49.77
21357;BME280;10836;53.068;18.234;2023-07-13T09:31:20;100793.44;;;26.84;50.83
21357;BME280;10836;53.068;18.234;2023-07-13T09:33:50;100788.44;;;26.14;52.52
21357;BME280;10836;53.068;18.234;2023-07-13T09:36:20;100785.84;;;26.55;51.31
21357;BME280;10836;53.068;18.234;2023-07-13T09:44:54;100799.75;;;26.21;54.14
21357;BME280;10836;53.068;18.234;2023-07-13T09:47:25;100789.22;;;24.81;59.73
21357;BME280;10836;53.068;18.234;2023-07-13T09:50:01;100795.13;;;24.57;68.17
21357;BME280;10836;53.068;18.234;2023-07-13T09:53:02;100806.69;;;24.39;82.64
21357;BME280;10836;53.068;18.234;2023-07-13T09:55:36;100824.56;;;23.56;90.82
21357;BME280;10836;53.068;18.234;2023-07-13T09:58:15;100820.63;;;23.01;93.94
21357;BME280;10836;53.068;18.234;2023-07-13T10:00:44;100824.28;;;22.13;100.00
21357;BME280;10836;53.068;18.234;2023-07-13T10:03:22;100815.81;;;21.97;100.00
21357;BME280;10836;53.068;18.234;2023-07-13T10:05:51;100818.91;;;21.71;100.00
21357;BME280;10836;53.068;18.234;2023-07-13T10:08:24;100813.81;;;21.16;100.00
21357;BME280;10836;53.068;18.234;2023-07-13T10:11:01;100826.34;;;20.39;100.00
21357;BME280;10836;53.068;18.234;2023-07-13T10:13:40;100812.66;;;20.63;100.00
21357;BME280;10836;53.068;18.234;2023-07-13T10:16:09;100819.81;;;20.85;100.00
21357;BME280;10836;53.068;18.234;2023-07-13T10:18:42;100822.97;;;21.16;100.00
21357;BME280;10836;53.068;18.234;2023-07-13T10:21:19;100829.81;;;20.98;100.00
21357;BME280;10836;53.068;18.234;2023-07-13T10:26:56;100819.28;;;20.50;100.00
21357;BME280;10836;53.068;18.234;2023-07-13T10:29:27;100818.38;;;20.08;100.00
21357;BME280;10836;53.068;18.234;2023-07-13T10:31:55;100817.38;;;20.42;100.00
21357;BME280;10836;53.068;18.234;2023-07-13T10:34:24;100820.97;;;20.63;100.00
21357;BME280;10836;53.068;18.234;2023-07-13T10:36:52;100817.63;;;20.90;100.00
21357;BME280;10836;53.068;18.234;2023-07-13T10:39:22;100813.56;;;20.88;100.00
21357;BME280;10836;53.068;18.234;2023-07-13T10:42:08;100819.59;;;20.90;100.00
21357;BME280;10836;53.068;18.234;2023-07-13T10:44:41;100818.19;;;20.63;100.00
21357;BME280;10836;53.068;18.234;2023-07-13T10:47:14;100806.44;;;20.66;100.00
21357;BME280;10836;53.068;18.234;2023-07-13T10:49:42;100808.97;;;20.92;100.00
21357;BME280;10836;53.068;18.234;2023-07-13T10:52:48;100814.00;;;20.78;100.00
21357;BME280;10836;53.068;18.234;2023-07-13T10:55:37;100812.88;;;20.29;100.00
21357;BME280;10836;53.068;18.234;2023-07-13T10:58:24;100811.38;;;20.02;100.00
21357;BME280;10836;53.068;18.234;2023-07-13T11:03:27;100807.50;;;19.94;100.00
21357;BME280;10836;53.068;18.234;2023-07-13T11:06:08;100813.69;;;20.29;100.00
21357;BME280;10836;53.068;18.234;2023-07-13T11:08:53;100814.50;;;20.30;100.00
21357;BME280;10836;53.068;18.234;2023-07-13T11:14:05;100820.00;;;20.38;100.00
21357;BME280;10836;53.068;18.234;2023-07-13T11:16:43;100813.38;;;20.51;100.00
21357;BME280;10836;53.068;18.234;2023-07-13T11:24:58;100819.53;;;21.32;100.00
21357;BME280;10836;53.068;18.234;2023-07-13T11:33:18;100818.16;;;22.72;100.00
21357;BME280;10836;53.068;18.234;2023-07-13T11:38:18;100824.56;;;23.00;92.80
21357;BME280;10836;53.068;18.234;2023-07-13T11:40:48;100819.47;;;23.02;98.50
21357;BME280;10836;53.068;18.234;2023-07-13T11:43:22;100820.03;;;23.36;96.49
21357;BME280;10836;53.068;18.234;2023-07-13T11:45:50;100827.72;;;23.27;95.24
21357;BME280;10836;53.068;18.234;2023-07-13T11:48:23;100818.72;;;22.89;99.70
21357;BME280;10836;53.068;18.234;2023-07-13T11:51:03;100812.72;;;23.03;98.31
21357;BME280;10836;53.068;18.234;2023-07-13T11:53:45;100806.31;;;22.75;98.02
21357;BME280;10836;53.068;18.234;2023-07-13T11:56:13;100819.66;;;22.41;99.58
21357;BME280;10836;53.068;18.234;2023-07-13T11:58:41;100807.81;;;22.44;98.82
21357;BME280;10836;53.068;18.234;2023-07-13T12:01:26;100815.47;;;22.23;100.00
21357;BME280;10836;53.068;18.234;2023-07-13T12:04:01;100812.13;;;22.30;100.00
21357;BME280;10836;53.068;18.234;2023-07-13T12:06:32;100808.06;;;22.27;100.00
21357;BME280;10836;53.068;18.234;2023-07-13T12:09:01;100807.75;;;22.56;100.00
21357;BME280;10836;53.068;18.234;2023-07-13T12:11:30;100808.28;;;22.86;100.00
21357;BME280;10836;53.068;18.234;2023-07-13T12:14:01;100802.00;;;23.17;93.93
21357;BME280;10836;53.068;18.234;2023-07-13T12:16:30;100798.91;;;23.35;93.04
21357;BME280;10836;53.068;18.234;2023-07-13T12:19:00;100805.16;;;23.75;91.01
21357;BME280;10836;53.068;18.234;2023-07-13T12:21:37;100795.34;;;24.67;81.90
21357;BME280;10836;53.068;18.234;2023-07-13T12:24:05;100804.44;;;25.22;80.03
21357;BME280;10836;53.068;18.234;2023-07-13T12:26:40;100793.31;;;25.26;63.13
21357;BME280;10836;53.068;18.234;2023-07-13T12:29:10;100796.81;;;25.42;65.25
21357;BME280;10836;53.068;18.234;2023-07-13T12:31:45;100784.38;;;25.16;68.04
21357;BME280;10836;53.068;18.234;2023-07-13T12:34:21;100785.66;;;25.42;68.33
21357;BME280;10836;53.068;18.234;2023-07-13T12:36:51;100786.84;;;25.22;64.82
21357;BME280;10836;53.068;18.234;2023-07-13T12:39:48;100786.84;;;25.22;65.84
21357;BME280;10836;53.068;18.234;2023-07-13T12:44:48;100790.53;;;25.26;59.28
21357;BME280;10836;53.068;18.234;2023-07-13T12:47:15;100792.41;;;25.41;58.79
21357;BME280;10836;53.068;18.234;2023-07-13T12:49:52;100794.88;;;25.65;57.25
21357;BME280;10836;53.068;18.234;2023-07-13T12:52:28;100791.59;;;25.40;58.04
21357;BME280;10836;53.068;18.234;2023-07-13T12:55:05;100772.44;;;25.19;53.62
21357;BME280;10836;53.068;18.234;2023-07-13T12:57:41;100781.38;;;24.86;54.58
21357;BME280;10836;53.068;18.234;2023-07-13T13:00:37;100775.41;;;24.88;54.05
21357;BME280;10836;53.068;18.234;2023-07-13T13:03:29;100771.28;;;24.43;58.76
21357;BME280;10836;53.068;18.234;2023-07-13T13:06:06;100759.59;;;24.03;56.55
21357;BME280;10836;53.068;18.234;2023-07-13T13:08:35;100772.03;;;23.58;57.16
21357;BME280;10836;53.068;18.234;2023-07-13T13:11:03;100779.66;;;23.45;59.70
21357;BME280;10836;53.068;18.234;2023-07-13T13:13:30;100785.00;;;22.79;65.70
21357;BME280;10836;53.068;18.234;2023-07-13T13:16:02;100821.19;;;22.67;69.86
21357;BME280;10836;53.068;18.234;2023-07-13T13:18:29;100831.72;;;22.21;75.40
21357;BME280;10836;53.068;18.234;2023-07-13T13:20:57;100836.56;;;21.87;81.65
21357;BME280;10836;53.068;18.234;2023-07-13T13:23:24;100837.75;;;21.41;93.34
21357;BME280;10836;53.068;18.234;2023-07-13T13:25:52;100830.97;;;20.97;100.00